Time;durP1;ratioP1;P1;durP2;ratioP2;P2;SDS_P1;SDS_P2;PMS_P1;PMS_P2;Temp;Humidity;BMP_temperature;BMP_pressure;BME280_temperature;BME280_humidity;BME280_pressure;Samples;Min_cycle;Max_cycle;Signal;HPM_P1;HPM_P2
2023/03/08 00:00:00;;;;;;;17.20;15.50;;;8.60;99.90;;;;;;5052094;28;20025;-66
2023/03/08 00:02:25;;;;;;;15.82;14.35;;;8.60;99.90;;;;;;5052269;28;20394;-65
2023/03/08 00:04:54;;;;;;;15.70;14.30;;;8.60;99.90;;;;;;5052490;28;20025;-66
2023/03/08 00:07:20;;;;;;;16.48;14.98;;;8.60;99.90;;;;;;5052211;28;20031;-66
2023/03/08 00:09:46;;;;;;;16.10;14.60;;;8.70;99.90;;;;;;5052228;28;20029;-66
2023/03/08 00:12:11;;;;;;;17.35;15.77;;;8.60;99.90;;;;;;5051894;28;20021;-65
2023/03/08 00:14:37;;;;;;;17.75;16.05;;;8.50;99.90;;;;;;5051005;28;20575;-65
2023/03/08 00:17:04;;;;;;;17.30;15.70;;;8.50;99.90;;;;;;5052302;28;20017;-66
2023/03/08 00:19:29;;;;;;;15.38;13.98;;;8.50;99.90;;;;;;5052110;28;20409;-66
2023/03/08 00:21:55;;;;;;;15.90;14.10;;;8.50;99.90;;;;;;5052536;28;20028;-65
2023/03/08 00:24:22;;;;;;;14.63;13.25;;;8.60;99.90;;;;;;5052197;28;20138;-65
2023/03/08 00:26:47;;;;;;;14.38;13.00;;;8.40;99.90;;;;;;5051623;28;20512;-65
2023/03/08 00:29:13;;;;;;;13.85;12.55;;;8.40;99.90;;;;;;5052350;28;20017;-65
2023/03/08 00:31:39;;;;;;;15.63;14.07;;;8.50;99.90;;;;;;5051730;28;20470;-65
2023/03/08 00:34:04;;;;;;;13.90;12.52;;;8.40;99.90;;;;;;5052309;28;20040;-66
2023/03/08 00:36:30;;;;;;;14.52;13.15;;;8.40;99.90;;;;;;5052087;28;20094;-65
2023/03/08 00:38:56;;;;;;;14.65;13.30;;;8.50;99.90;;;;;;5051917;28;20029;-65
2023/03/08 00:41:22;;;;;;;13.38;12.18;;;8.50;99.90;;;;;;5051652;28;20052;-65
2023/03/08 00:43:48;;;;;;;12.88;11.77;;;8.60;99.90;;;;;;5051607;28;20090;-66
2023/03/08 00:46:14;;;;;;;12.65;11.45;;;8.60;99.90;;;;;;5051870;28;20489;-65
2023/03/08 00:48:41;;;;;;;12.27;11.00;;;8.70;99.90;;;;;;5051712;28;20024;-65
2023/03/08 00:51:07;;;;;;;11.55;10.35;;;8.60;99.90;;;;;;5052299;28;20033;-65
2023/03/08 00:53:33;;;;;;;11.77;10.63;;;8.70;99.90;;;;;;5051915;28;20037;-65
2023/03/08 00:55:59;;;;;;;11.90;10.70;;;8.70;99.90;;;;;;5051347;28;20037;-66
2023/03/08 00:58:27;;;;;;;12.00;10.73;;;8.70;99.90;;;;;;5052106;28;20029;-65
2023/03/08 01:00:53;;;;;;;11.27;10.25;;;8.70;99.90;;;;;;5051755;28;20100;-65
2023/03/08 01:03:23;;;;;;;12.15;9.52;;;8.70;99.90;;;;;;5051622;28;20025;-65
2023/03/08 01:05:51;;;;;;;10.32;9.27;;;8.70;99.90;;;;;;5052161;28;20021;-65
2023/03/08 01:08:18;;;;;;;9.23;8.23;;;8.80;99.90;;;;;;5053663;28;20033;-65
2023/03/08 01:10:59;;;;;;;9.52;8.50;;;8.90;99.90;;;;;;5055430;28;20033;-65
2023/03/08 01:13:30;;;;;;;10.20;8.82;;;8.80;99.90;;;;;;5055454;28;20049;-64
2023/03/08 01:15:56;;;;;;;9.02;8.13;;;8.80;99.90;;;;;;5055696;28;20049;-65
2023/03/08 01:18:22;;;;;;;8.07;7.28;;;8.80;99.90;;;;;;5055840;28;20043;-65
2023/03/08 01:21:02;;;;;;;8.52;7.45;;;9.00;99.90;;;;;;5055335;28;20024;-66
2023/03/08 01:23:28;;;;;;;8.88;7.10;;;8.90;99.90;;;;;;5055324;28;20021;-65
2023/03/08 01:26:02;;;;;;;8.50;7.47;;;8.90;99.90;;;;;;5055282;28;20029;-65
2023/03/08 01:28:28;;;;;;;7.60;6.78;;;9.00;99.90;;;;;;5055273;28;20024;-65
2023/03/08 01:31:00;;;;;;;7.95;7.03;;;9.00;99.90;;;;;;5055250;28;20028;-65
2023/03/08 01:33:26;;;;;;;8.13;7.07;;;9.00;99.90;;;;;;5055181;28;20067;-66
2023/03/08 01:35:52;;;;;;;8.10;7.10;;;9.00;99.90;;;;;;5055670;28;20036;-66
2023/03/08 01:38:17;;;;;;;8.88;6.60;;;9.00;99.90;;;;;;5055083;28;20021;-66
2023/03/08 01:40:43;;;;;;;6.85;6.15;;;9.00;99.90;;;;;;5054692;28;20116;-66
2023/03/08 01:43:30;;;;;;;8.77;6.22;;;9.10;99.90;;;;;;5054888;28;20033;-65
2023/03/08 01:46:31;;;;;;;6.00;5.40;;;9.10;99.90;;;;;;5055400;28;20025;-66
2023/03/08 01:49:12;;;;;;;6.97;5.80;;;9.20;99.90;;;;;;5054562;28;20094;-65
2023/03/08 01:51:56;;;;;;;8.18;5.38;;;9.20;99.90;;;;;;5055206;28;20166;-65
2023/03/08 01:54:36;;;;;;;8.63;5.68;;;9.20;99.90;;;;;;5054397;28;20037;-65
2023/03/08 01:57:07;;;;;;;10.68;5.60;;;9.20;99.90;;;;;;5054681;28;20025;-65
2023/03/08 01:59:34;;;;;;;8.30;5.80;;;9.20;99.90;;;;;;5054741;28;20087;-65
2023/03/08 02:02:01;;;;;;;5.72;5.20;;;9.10;99.90;;;;;;5054798;28;20028;-65
2023/03/08 02:04:27;;;;;;;5.55;5.03;;;9.10;99.90;;;;;;5054761;28;20021;-65
2023/03/08 02:06:52;;;;;;;6.30;5.00;;;9.20;99.90;;;;;;5054637;28;20025;-65
2023/03/08 02:09:19;;;;;;;7.80;5.07;;;9.20;99.90;;;;;;5054700;28;20021;-65
2023/03/08 02:11:46;;;;;;;7.15;4.95;;;9.10;99.90;;;;;;5054346;28;20033;-65
2023/03/08 02:14:12;;;;;;;5.05;4.00;;;9.30;99.90;;;;;;5054223;28;20053;-66
2023/03/08 02:16:38;;;;;;;6.20;4.43;;;9.20;99.90;;;;;;5054477;28;20394;-65
2023/03/08 02:19:10;;;;;;;5.72;4.63;;;9.30;99.90;;;;;;5053267;28;20051;-65
2023/03/08 02:21:36;;;;;;;6.88;4.30;;;9.30;99.90;;;;;;5054347;28;20041;-66
2023/03/08 02:24:06;;;;;;;7.38;4.30;;;9.30;99.90;;;;;;5054293;28;20305;-66
2023/03/08 02:26:34;;;;;;;7.10;4.40;;;9.40;99.90;;;;;;5054066;28;20025;-65
2023/03/08 02:29:00;;;;;;;5.25;3.80;;;9.40;99.90;;;;;;5054304;28;20386;-65
2023/03/08 02:31:25;;;;;;;6.18;4.20;;;9.40;99.90;;;;;;5054135;28;20033;-65
2023/03/08 02:33:51;;;;;;;5.43;3.50;;;9.40;99.90;;;;;;5054082;28;20021;-66
2023/03/08 02:36:17;;;;;;;7.57;4.13;;;9.40;99.90;;;;;;5054038;28;20037;-65
2023/03/08 02:38:42;;;;;;;6.35;4.15;;;9.50;99.90;;;;;;5054081;28;20013;-65
2023/03/08 02:41:08;;;;;;;5.32;3.70;;;9.50;99.90;;;;;;5053787;28;20029;-65
2023/03/08 02:43:34;;;;;;;5.70;3.75;;;9.50;99.90;;;;;;5054042;28;20083;-65
2023/03/08 02:46:00;;;;;;;9.55;5.30;;;9.50;99.90;;;;;;5053910;28;20082;-65
2023/03/08 02:48:25;;;;;;;5.25;3.67;;;9.50;99.90;;;;;;5053896;28;20112;-65
2023/03/08 02:50:51;;;;;;;4.82;3.28;;;9.50;99.90;;;;;;5053786;28;20035;-65
2023/03/08 02:53:17;;;;;;;5.32;3.50;;;9.60;99.90;;;;;;5053505;28;20025;-65
2023/03/08 02:55:42;;;;;;;3.70;3.28;;;9.40;99.90;;;;;;5053658;28;20049;-66
2023/03/08 02:58:09;;;;;;;4.43;3.75;;;9.40;99.90;;;;;;5053598;28;20032;-66
2023/03/08 03:00:36;;;;;;;6.53;3.67;;;9.40;99.90;;;;;;5053892;28;20037;-66
2023/03/08 03:03:01;;;;;;;5.32;3.67;;;9.50;99.90;;;;;;5053674;28;20034;-66
2023/03/08 03:05:27;;;;;;;4.45;3.67;;;9.40;99.90;;;;;;5053555;28;20025;-66
2023/03/08 03:07:54;;;;;;;4.32;3.17;;;9.40;99.90;;;;;;5053212;28;20028;-66
2023/03/08 03:10:20;;;;;;;4.55;3.30;;;9.40;99.90;;;;;;5053333;28;20032;-66
2023/03/08 03:12:46;;;;;;;5.28;3.70;;;9.40;99.90;;;;;;5053419;28;20021;-66
2023/03/08 03:15:11;;;;;;;5.60;3.80;;;9.50;99.90;;;;;;5053281;28;20387;-66
2023/03/08 03:17:37;;;;;;;6.10;3.83;;;9.30;99.90;;;;;;5053626;28;20021;-65
2023/03/08 03:20:07;;;;;;;7.78;5.32;;;9.40;99.90;;;;;;5053295;28;20029;-66
2023/03/08 03:22:33;;;;;;;7.40;5.30;;;9.40;99.90;;;;;;5052872;28;20561;-66
2023/03/08 03:24:59;;;;;;;8.43;6.18;;;9.30;99.90;;;;;;5053067;28;20025;-66
2023/03/08 03:27:25;;;;;;;9.75;4.95;;;9.50;99.90;;;;;;5053078;28;20421;-66
2023/03/08 03:29:51;;;;;;;6.22;4.55;;;9.40;99.90;;;;;;5053024;28;20474;-66
2023/03/08 03:32:17;;;;;;;5.20;3.88;;;9.30;99.90;;;;;;5052715;28;20033;-66
2023/03/08 03:34:42;;;;;;;6.70;4.60;;;9.30;99.90;;;;;;5052893;28;20025;-66
2023/03/08 03:37:08;;;;;;;5.80;4.28;;;9.30;99.90;;;;;;5052610;28;20489;-65
2023/03/08 03:39:38;;;;;;;5.13;3.45;;;9.30;99.90;;;;;;5052898;28;20494;-66
2023/03/08 03:42:05;;;;;;;5.07;3.42;;;9.40;99.90;;;;;;5052841;28;20028;-66
2023/03/08 03:44:31;;;;;;;5.22;3.70;;;9.40;99.90;;;;;;5052952;28;20032;-66
2023/03/08 03:46:57;;;;;;;4.47;3.30;;;9.30;99.90;;;;;;5052611;28;20040;-66
2023/03/08 03:49:23;;;;;;;6.53;3.83;;;9.40;99.90;;;;;;5052570;28;20021;-66
2023/03/08 03:51:48;;;;;;;6.07;3.67;;;9.40;99.90;;;;;;5052667;28;20101;-66
2023/03/08 03:54:14;;;;;;;5.93;3.85;;;9.40;99.90;;;;;;5052522;28;20037;-66
2023/03/08 03:56:40;;;;;;;6.47;4.40;;;9.40;99.90;;;;;;5052658;28;20029;-66
2023/03/08 03:59:06;;;;;;;4.68;3.78;;;9.40;99.90;;;;;;5052457;28;20046;-66
2023/03/08 04:01:32;;;;;;;6.13;4.10;;;9.40;99.90;;;;;;5052528;28;20438;-66
2023/03/08 04:03:58;;;;;;;5.95;3.70;;;9.40;99.90;;;;;;5052835;28;20029;-66
2023/03/08 04:06:26;;;;;;;5.60;3.83;;;9.40;99.90;;;;;;5052049;28;20502;-66
2023/03/08 04:09:00;;;;;;;5.70;3.58;;;9.40;99.90;;;;;;5052117;28;20036;-65
2023/03/08 04:11:28;;;;;;;6.20;3.70;;;9.40;99.90;;;;;;5052350;28;20107;-66
2023/03/08 04:13:54;;;;;;;6.57;4.03;;;9.40;99.90;;;;;;5052552;28;20155;-66
2023/03/08 04:16:22;;;;;;;6.72;3.78;;;9.40;99.90;;;;;;5052241;28;20033;-66
2023/03/08 04:18:54;;;;;;;6.13;3.90;;;9.50;99.90;;;;;;5051952;28;20071;-66
2023/03/08 04:21:20;;;;;;;7.05;4.43;;;9.50;99.90;;;;;;5052080;28;20017;-66
2023/03/08 04:23:45;;;;;;;8.38;5.07;;;9.50;99.90;;;;;;5052211;28;20386;-66
2023/03/08 04:26:12;;;;;;;7.65;5.07;;;9.50;99.90;;;;;;5052493;28;20064;-66
2023/03/08 04:28:39;;;;;;;7.50;4.47;;;9.60;99.90;;;;;;5052004;28;20040;-66
2023/03/08 04:31:15;;;;;;;7.45;3.90;;;9.50;99.90;;;;;;5050830;28;20398;-66
2023/03/08 04:33:41;;;;;;;5.65;3.88;;;9.40;99.90;;;;;;5051625;28;20477;-66
2023/03/08 04:36:07;;;;;;;6.13;4.15;;;9.40;99.90;;;;;;5051828;28;20087;-66
2023/03/08 04:38:33;;;;;;;8.63;6.88;;;9.40;99.90;;;;;;5052003;28;20049;-66
2023/03/08 04:41:10;;;;;;;7.07;4.47;;;9.30;99.90;;;;;;5052420;28;20110;-66
2023/03/08 04:43:46;;;;;;;9.18;5.97;;;9.30;99.90;;;;;;5057081;28;20029;-66
2023/03/08 04:46:13;;;;;;;7.60;5.20;;;9.50;99.90;;;;;;5058645;28;20490;-66
2023/03/08 04:48:39;;;;;;;8.50;5.35;;;9.40;99.90;;;;;;5057925;28;20028;-66
2023/03/08 04:51:06;;;;;;;8.80;5.85;;;9.40;99.90;;;;;;5058460;28;20032;-66
2023/03/08 04:53:33;;;;;;;8.80;5.53;;;9.40;99.90;;;;;;5058596;28;20021;-66
2023/03/08 04:55:59;;;;;;;8.57;5.68;;;9.40;99.90;;;;;;5058446;28;20489;-66
2023/03/08 04:58:26;;;;;;;7.40;5.05;;;9.50;99.90;;;;;;5058463;28;20039;-66
2023/03/08 05:00:52;;;;;;;7.50;5.47;;;9.50;99.90;;;;;;5058464;28;20024;-66
2023/03/08 05:03:18;;;;;;;5.80;4.85;;;9.50;99.90;;;;;;5058186;28;20025;-66
2023/03/08 05:05:45;;;;;;;7.40;4.50;;;9.40;99.90;;;;;;5058785;28;20549;-66
2023/03/08 05:08:11;;;;;;;6.45;4.18;;;9.40;99.90;;;;;;5058374;28;20461;-66
2023/03/08 05:10:38;;;;;;;7.07;4.30;;;9.40;99.90;;;;;;5058487;28;20071;-66
2023/03/08 05:13:03;;;;;;;6.43;4.10;;;9.40;99.90;;;;;;5058225;28;20124;-66
2023/03/08 05:15:29;;;;;;;6.60;3.90;;;9.40;99.90;;;;;;5058591;28;20457;-66
2023/03/08 05:17:55;;;;;;;5.88;4.57;;;9.50;99.90;;;;;;5058029;28;20029;-66
2023/03/08 05:20:20;;;;;;;6.72;4.18;;;9.50;99.90;;;;;;5058211;28;20478;-66
2023/03/08 05:22:46;;;;;;;9.13;4.72;;;9.50;99.90;;;;;;5058275;28;20025;-65
2023/03/08 05:25:13;;;;;;;8.07;5.10;;;9.60;99.90;;;;;;5058281;28;20432;-65
2023/03/08 05:27:38;;;;;;;7.60;5.38;;;9.60;99.90;;;;;;5058615;28;20075;-65
2023/03/08 05:30:04;;;;;;;6.40;4.32;;;9.70;99.90;;;;;;5058186;28;20028;-66
2023/03/08 05:32:30;;;;;;;8.30;5.05;;;9.70;99.90;;;;;;5057975;28;20107;-66
2023/03/08 05:34:56;;;;;;;8.57;4.95;;;9.70;99.90;;;;;;5057983;28;20589;-66
2023/03/08 05:37:24;;;;;;;6.97;4.57;;;9.70;99.90;;;;;;5058375;28;20025;-66
2023/03/08 05:39:51;;;;;;;6.30;4.38;;;9.80;99.90;;;;;;5058435;28;20017;-66
2023/03/08 05:42:17;;;;;;;7.43;5.75;;;9.60;99.90;;;;;;5058059;28;20025;-66
2023/03/08 05:44:42;;;;;;;7.63;4.63;;;9.60;99.90;;;;;;5057960;28;20155;-66
2023/03/08 05:47:08;;;;;;;8.00;5.07;;;9.70;99.90;;;;;;5058083;28;20473;-66
2023/03/08 05:49:34;;;;;;;12.27;11.05;;;9.60;99.90;;;;;;5057960;28;20091;-66
2023/03/08 05:52:00;;;;;;;5.95;4.43;;;9.60;99.90;;;;;;5057969;28;20025;-66
2023/03/08 05:54:25;;;;;;;8.43;6.00;;;9.50;99.90;;;;;;5056081;28;20017;-66
2023/03/08 05:56:51;;;;;;;7.60;5.22;;;9.50;99.90;;;;;;5054794;28;20029;-66
2023/03/08 05:59:17;;;;;;;5.40;4.30;;;9.50;99.90;;;;;;5054718;28;20086;-66
2023/03/08 06:01:42;;;;;;;8.82;5.57;;;9.60;99.90;;;;;;5054768;28;20076;-66
2023/03/08 06:04:08;;;;;;;7.80;5.10;;;9.60;99.90;;;;;;5054290;28;20017;-66
2023/03/08 06:06:34;;;;;;;9.50;6.10;;;9.60;99.90;;;;;;5054698;28;20040;-65
2023/03/08 06:09:00;;;;;;;10.20;5.85;;;9.60;99.90;;;;;;5054972;28;20411;-66
2023/03/08 06:11:25;;;;;;;9.70;7.00;;;9.60;99.90;;;;;;5054570;28;20091;-65
2023/03/08 06:13:51;;;;;;;12.90;10.98;;;9.70;99.90;;;;;;5054294;28;20045;-66
2023/03/08 06:16:17;;;;;;;9.45;8.55;;;9.80;99.90;;;;;;5054150;28;20037;-66
2023/03/08 06:18:43;;;;;;;10.77;9.63;;;9.70;99.90;;;;;;5052974;28;20032;-66
2023/03/08 06:21:17;;;;;;;10.93;8.63;;;9.70;99.90;;;;;;5054454;28;20033;-66
2023/03/08 06:23:43;;;;;;;9.75;7.80;;;9.70;99.90;;;;;;5054343;28;20038;-66
2023/03/08 06:26:10;;;;;;;7.88;6.20;;;9.70;99.90;;;;;;5054245;28;20457;-66
2023/03/08 06:28:39;;;;;;;8.05;6.97;;;9.70;99.90;;;;;;5054217;28;20028;-66
2023/03/08 06:31:05;;;;;;;7.32;5.38;;;9.80;99.90;;;;;;5054270;28;20478;-66
2023/03/08 06:33:31;;;;;;;7.50;6.25;;;9.80;99.90;;;;;;5053937;28;20516;-65
2023/03/08 06:36:10;;;;;;;11.73;7.80;;;9.80;99.90;;;;;;5054084;28;20029;-65
2023/03/08 06:38:38;;;;;;;11.93;9.75;;;9.70;99.90;;;;;;5053991;28;20664;-66
2023/03/08 06:41:04;;;;;;;9.20;6.63;;;9.80;99.90;;;;;;5054151;28;20052;-65
2023/03/08 06:43:31;;;;;;;10.82;6.22;;;9.80;99.90;;;;;;5054108;28;20021;-66
2023/03/08 06:45:57;;;;;;;11.10;7.90;;;9.80;99.90;;;;;;5053577;28;20025;-65
2023/03/08 06:48:23;;;;;;;11.32;6.93;;;9.70;99.90;;;;;;5053535;28;20024;-66
2023/03/08 06:50:50;;;;;;;9.00;5.18;;;9.60;99.90;;;;;;5054178;28;20021;-66
2023/03/08 06:53:15;;;;;;;8.95;8.00;;;9.60;99.90;;;;;;5054027;28;20047;-66
2023/03/08 06:55:41;;;;;;;8.63;6.38;;;9.70;99.90;;;;;;5053645;28;20386;-65
2023/03/08 06:58:08;;;;;;;9.63;6.40;;;9.60;99.90;;;;;;5054001;28;20032;-65
2023/03/08 07:00:33;;;;;;;9.27;6.50;;;9.60;99.90;;;;;;5053528;28;20021;-65
2023/03/08 07:03:00;;;;;;;10.85;6.38;;;9.70;99.90;;;;;;5053595;28;20505;-66
2023/03/08 07:05:26;;;;;;;8.48;5.03;;;9.80;99.90;;;;;;5052990;28;20037;-66
2023/03/08 07:07:52;;;;;;;6.60;5.32;;;9.80;99.90;;;;;;5053575;28;20027;-66
2023/03/08 07:10:19;;;;;;;7.93;4.75;;;9.80;99.90;;;;;;5053679;28;20481;-66
2023/03/08 07:12:48;;;;;;;7.63;6.75;;;9.70;99.90;;;;;;5052921;28;20025;-66
2023/03/08 07:15:15;;;;;;;8.15;5.07;;;9.80;99.90;;;;;;5053536;28;20125;-65
2023/03/08 07:17:42;;;;;;;6.05;4.93;;;9.80;99.90;;;;;;5053319;28;20017;-65
2023/03/08 07:20:09;;;;;;;6.78;4.82;;;9.80;99.90;;;;;;5053165;28;20363;-65
2023/03/08 07:22:35;;;;;;;7.22;4.88;;;9.80;99.90;;;;;;5051891;28;20558;-66
2023/03/08 07:25:00;;;;;;;10.63;7.88;;;9.70;99.90;;;;;;5053211;28;20025;-66
2023/03/08 07:27:26;;;;;;;9.90;7.25;;;9.70;99.90;;;;;;5053358;28;20013;-65
2023/03/08 07:29:52;;;;;;;6.25;4.97;;;9.70;99.90;;;;;;5053033;28;20032;-66
2023/03/08 07:32:18;;;;;;;8.82;6.43;;;9.70;99.90;;;;;;5052973;28;20494;-66
2023/03/08 07:34:44;;;;;;;12.93;10.75;;;9.70;99.90;;;;;;5053221;28;20575;-66
2023/03/08 07:37:14;;;;;;;14.88;10.55;;;9.80;99.90;;;;;;5052775;28;20490;-66
2023/03/08 07:39:40;;;;;;;12.35;8.52;;;9.90;99.90;;;;;;5052689;28;20033;-66
2023/03/08 07:42:06;;;;;;;18.92;12.38;;;10.00;99.90;;;;;;5052357;28;20037;-66
2023/03/08 07:44:31;;;;;;;10.38;7.88;;;10.00;99.90;;;;;;5052787;28;20024;-66
2023/03/08 07:46:57;;;;;;;12.25;10.15;;;10.10;99.90;;;;;;5053017;28;20559;-66
2023/03/08 07:49:23;;;;;;;10.38;7.95;;;10.10;99.90;;;;;;5052556;28;20372;-66
2023/03/08 07:51:52;;;;;;;11.75;6.60;;;10.10;99.90;;;;;;5051562;28;20029;-66
2023/03/08 07:54:17;;;;;;;13.43;8.65;;;10.20;99.90;;;;;;5052826;28;20032;-66
2023/03/08 07:56:43;;;;;;;9.77;7.80;;;10.20;99.90;;;;;;5052442;28;20078;-66
2023/03/08 07:59:09;;;;;;;23.35;8.25;;;10.30;99.90;;;;;;5052380;28;20482;-66
2023/03/08 08:01:35;;;;;;;13.93;7.45;;;10.40;99.90;;;;;;5052450;28;20029;-66
2023/03/08 08:04:00;;;;;;;9.05;6.75;;;10.40;99.90;;;;;;5052318;28;20028;-66
2023/03/08 08:06:27;;;;;;;11.50;6.43;;;10.50;99.90;;;;;;5052746;28;20033;-66
2023/03/08 08:08:55;;;;;;;8.88;6.78;;;10.50;99.90;;;;;;5052338;28;20047;-66
2023/03/08 08:11:21;;;;;;;9.82;7.15;;;10.60;99.90;;;;;;5051987;28;20029;-66
2023/03/08 08:13:47;;;;;;;13.80;9.43;;;10.60;99.90;;;;;;5052526;28;20188;-66
2023/03/08 08:16:14;;;;;;;8.93;7.00;;;10.70;99.90;;;;;;5052077;28;20036;-66
2023/03/08 08:18:40;;;;;;;10.18;6.47;;;10.70;99.90;;;;;;5051354;28;20108;-66
2023/03/08 08:21:11;;;;;;;9.98;7.50;;;10.70;99.90;;;;;;5052185;28;20129;-66
2023/03/08 08:23:38;;;;;;;11.52;6.72;;;10.70;99.90;;;;;;5052059;28;20025;-66
2023/03/08 08:26:09;;;;;;;10.60;5.78;;;10.90;99.90;;;;;;5051756;28;20052;-67
2023/03/08 08:28:36;;;;;;;8.60;5.80;;;10.90;99.90;;;;;;5052360;28;20103;-66
2023/03/08 08:31:05;;;;;;;8.80;5.30;;;11.00;99.90;;;;;;5051786;28;20108;-66
2023/03/08 08:33:32;;;;;;;8.35;5.05;;;11.10;99.90;;;;;;5052034;28;20021;-66
2023/03/08 08:35:58;;;;;;;7.45;5.45;;;11.10;99.90;;;;;;5052268;28;20025;-66
2023/03/08 08:38:24;;;;;;;10.63;6.55;;;11.10;99.90;;;;;;5051947;28;20021;-66
2023/03/08 08:40:51;;;;;;;9.27;6.30;;;11.20;99.90;;;;;;5051635;28;20032;-66
2023/03/08 08:43:17;;;;;;;8.13;6.50;;;11.30;99.90;;;;;;5051900;28;20028;-66
2023/03/08 08:45:44;;;;;;;8.10;6.03;;;11.40;99.90;;;;;;5051921;28;20033;-66
2023/03/08 08:48:11;;;;;;;7.55;5.60;;;11.40;99.90;;;;;;5051992;28;20028;-66
2023/03/08 08:50:41;;;;;;;6.97;5.22;;;11.50;99.90;;;;;;5051883;28;20029;-66
2023/03/08 08:53:08;;;;;;;8.02;5.43;;;11.60;99.90;;;;;;5051900;28;20100;-65
2023/03/08 08:55:34;;;;;;;9.15;4.80;;;11.70;99.90;;;;;;5051294;28;20128;-64
2023/03/08 08:58:02;;;;;;;7.22;4.38;;;11.80;99.90;;;;;;5052046;28;20490;-66
2023/03/08 09:00:28;;;;;;;6.95;4.60;;;11.90;99.90;;;;;;5051874;28;20528;-65
2023/03/08 09:02:54;;;;;;;8.02;4.43;;;12.00;99.90;;;;;;5052089;28;20029;-66
2023/03/08 09:05:20;;;;;;;6.68;4.70;;;12.10;99.90;;;;;;5051690;28;20033;-66
2023/03/08 09:07:45;;;;;;;5.05;4.18;;;12.10;99.90;;;;;;5051324;28;20052;-66
2023/03/08 09:10:11;;;;;;;6.22;5.20;;;12.30;99.90;;;;;;5051102;28;20112;-65
2023/03/08 09:12:37;;;;;;;6.25;4.10;;;12.20;99.90;;;;;;5051309;28;20478;-66
2023/03/08 09:15:04;;;;;;;7.10;4.82;;;12.40;99.90;;;;;;5051527;28;20045;-66
2023/03/08 09:17:32;;;;;;;7.65;4.38;;;12.60;99.90;;;;;;5051313;28;20052;-66
2023/03/08 09:19:58;;;;;;;7.45;4.30;;;12.80;99.90;;;;;;5051909;28;20025;-66
2023/03/08 09:22:26;;;;;;;8.00;5.18;;;13.00;99.90;;;;;;5050231;28;20052;-66
2023/03/08 09:24:51;;;;;;;8.52;4.20;;;13.10;99.90;;;;;;5051179;28;20024;-66
2023/03/08 09:27:17;;;;;;;8.63;5.60;;;13.10;99.90;;;;;;5051442;28;20025;-66
2023/03/08 09:29:43;;;;;;;16.80;11.88;;;13.30;99.90;;;;;;5054184;28;20025;-66
2023/03/08 09:32:09;;;;;;;13.40;11.65;;;13.40;99.90;;;;;;5055563;28;20071;-66
2023/03/08 09:34:34;;;;;;;12.75;9.98;;;13.60;99.90;;;;;;5055232;28;20032;-66
2023/03/08 09:37:01;;;;;;;8.93;6.72;;;13.70;99.90;;;;;;5054926;28;20044;-66
2023/03/08 09:39:27;;;;;;;18.45;14.25;;;13.80;99.90;;;;;;5054463;28;20025;-67
2023/03/08 09:41:59;;;;;;;9.40;6.20;;;13.90;99.90;;;;;;5054977;28;20029;-66
2023/03/08 09:44:31;;;;;;;16.27;10.63;;;14.10;99.90;;;;;;5055058;28;20045;-65
2023/03/08 09:47:29;;;;;;;17.45;14.45;;;14.60;99.90;;;;;;5055295;28;20029;-66
2023/03/08 09:50:08;;;;;;;10.90;8.32;;;15.20;99.90;;;;;;5034199;28;20041;-64
2023/03/08 09:52:47;;;;;;;9.60;8.45;;;16.20;99.90;;;;;;5034122;28;20097;-66
2023/03/08 09:55:27;;;;;;;5.55;3.88;;;17.40;99.90;;;;;;5034839;28;20053;-65
2023/03/08 09:57:55;;;;;;;12.20;9.20;;;20.20;99.90;;;;;;5034914;28;20382;-66
2023/03/08 10:00:33;;;;;;;7.47;3.95;;;22.10;99.90;;;;;;5034602;28;20037;-65
2023/03/08 10:03:02;;;;;;;8.10;5.68;;;22.10;99.90;;;;;;5034682;28;20028;-66
2023/03/08 10:06:06;;;;;;;3.53;2.55;;;20.20;99.90;;;;;;5034616;28;20059;-66
2023/03/08 10:08:45;;;;;;;5.27;2.90;;;19.50;99.90;;;;;;5031930;28;20033;-66
2023/03/08 10:11:27;;;;;;;4.13;2.30;;;19.10;99.90;;;;;;5032287;28;20113;-66
2023/03/08 10:13:56;;;;;;;4.75;2.60;;;18.30;99.90;;;;;;5032684;28;20048;-66
2023/03/08 10:16:25;;;;;;;5.13;2.65;;;18.10;99.90;;;;;;5032380;28;20049;-66
2023/03/08 10:19:13;;;;;;;5.13;2.28;;;18.70;99.90;;;;;;5032211;28;20613;-66
2023/03/08 10:21:41;;;;;;;6.05;3.55;;;20.10;99.90;;;;;;5031890;28;20044;-66
2023/03/08 10:24:29;;;;;;;5.15;2.20;;;20.90;99.90;;;;;;5031909;28;20477;-66
2023/03/08 10:27:22;;;;;;;5.13;2.95;;;21.90;99.90;;;;;;5032117;28;20083;-66
2023/03/08 10:29:54;;;;;;;3.97;2.72;;;22.00;99.90;;;;;;5032601;28;20025;-65
2023/03/08 10:32:21;;;;;;;4.05;1.77;;;22.00;99.90;;;;;;5031907;28;20084;-66
2023/03/08 10:34:47;;;;;;;4.32;2.05;;;22.30;99.90;;;;;;5032149;28;20036;-66
2023/03/08 10:37:13;;;;;;;7.57;2.20;;;22.60;99.90;;;;;;5031148;28;20033;-66
2023/03/08 10:39:53;;;;;;;8.98;3.17;;;22.20;99.90;;;;;;5031803;28;20140;-66
2023/03/08 10:42:25;;;;;;;4.68;2.00;;;22.10;99.90;;;;;;5031610;28;20644;-66
2023/03/08 10:44:54;;;;;;;4.85;3.08;;;22.00;99.90;;;;;;5050013;28;20033;-66
2023/03/08 10:47:32;;;;;;;4.68;2.38;;;22.20;99.90;;;;;;5053777;28;20091;-66
2023/03/08 10:50:36;;;;;;;5.38;2.50;;;22.40;99.90;;;;;;5033928;28;20026;-65
2023/03/08 10:53:18;;;;;;;3.30;1.70;;;21.90;99.90;;;;;;5012320;28;20034;-67
2023/03/08 10:55:53;;;;;;;3.53;2.05;;;21.80;99.90;;;;;;5012320;28;20066;-66
2023/03/08 10:58:36;;;;;;;3.35;2.17;;;21.10;99.90;;;;;;5011733;28;20045;-66
2023/03/08 11:01:21;;;;;;;5.13;2.50;;;21.20;99.90;;;;;;5011843;28;20084;-66
2023/03/08 11:04:16;;;;;;;4.82;1.58;;;20.90;99.90;;;;;;5011662;28;20030;-66
2023/03/08 11:06:42;;;;;;;7.15;2.63;;;20.30;99.90;;;;;;5011321;28;20022;-67
2023/03/08 11:09:40;;;;;;;4.03;1.50;;;20.20;99.90;;;;;;4995122;28;20624;-67
2023/03/08 11:12:24;;;;;;;9.27;3.33;;;19.80;99.90;;;;;;4933848;29;20095;-67
2023/03/08 11:14:51;;;;;;;8.70;4.60;;;19.80;99.90;;;;;;4933295;29;20042;-66
2023/03/08 11:17:38;;;;;;;4.57;2.42;;;19.70;99.90;;;;;;4934023;29;20046;-66
2023/03/08 11:20:14;;;;;;;6.35;2.90;;;19.70;99.90;;;;;;4933581;29;20024;-66
2023/03/08 11:22:49;;;;;;;7.03;4.03;;;19.70;99.90;;;;;;4933196;29;20063;-66
2023/03/08 11:25:14;;;;;;;6.25;3.30;;;19.40;99.90;;;;;;4932980;29;20079;-67
2023/03/08 11:27:46;;;;;;;12.00;4.30;;;19.30;99.90;;;;;;4933804;29;20044;-66
2023/03/08 11:30:30;;;;;;;8.13;2.75;;;19.00;99.90;;;;;;4933672;29;20038;-66
2023/03/08 11:33:12;;;;;;;8.70;4.13;;;18.90;99.90;;;;;;4933629;29;20047;-66
2023/03/08 11:35:56;;;;;;;9.13;3.85;;;18.60;99.90;;;;;;4933147;29;20134;-67
2023/03/08 11:38:23;;;;;;;11.20;3.70;;;18.80;99.90;;;;;;4933712;29;20027;-66
2023/03/08 11:41:07;;;;;;;14.43;5.03;;;18.30;99.90;;;;;;4933435;29;20157;-66
2023/03/08 11:44:17;;;;;;;13.88;4.10;;;18.40;99.90;;;;;;4939705;28;20032;-65
2023/03/08 11:47:23;;;;;;;14.73;3.67;;;18.20;99.90;;;;;;4961381;28;20174;-65
2023/03/08 11:50:10;;;;;;;12.63;4.20;;;17.80;99.90;;;;;;5052200;28;20025;-65
2023/03/08 11:52:56;;;;;;;15.15;3.90;;;17.70;99.90;;;;;;5052370;28;20152;-66
2023/03/08 11:55:27;;;;;;;13.50;4.75;;;17.50;99.90;;;;;;5052655;28;20040;-66
2023/03/08 11:58:17;;;;;;;17.05;4.10;;;17.40;99.90;;;;;;5052480;28;20501;-66
2023/03/08 12:00:45;;;;;;;16.92;4.53;;;17.40;99.90;;;;;;5052529;28;20021;-65
2023/03/08 12:03:17;;;;;;;10.90;3.80;;;17.50;99.90;;;;;;5052670;28;20025;-66
2023/03/08 12:05:55;;;;;;;13.98;3.40;;;17.30;99.90;;;;;;5052379;28;20025;-65
2023/03/08 12:08:28;;;;;;;14.30;4.70;;;17.20;99.90;;;;;;5052542;28;20025;-65
2023/03/08 12:10:57;;;;;;;16.20;5.20;;;17.10;99.90;;;;;;5052302;28;20033;-65
2023/03/08 12:13:32;;;;;;;14.13;3.85;;;17.00;99.90;;;;;;5052113;28;20049;-65
2023/03/08 12:16:17;;;;;;;13.77;3.45;;;17.30;99.90;;;;;;5052290;28;20619;-65
2023/03/08 12:18:50;;;;;;;15.90;3.70;;;17.40;99.90;;;;;;5051950;28;20070;-65
2023/03/08 12:21:42;;;;;;;14.27;3.58;;;17.50;99.90;;;;;;5052196;28;20078;-65
2023/03/08 12:24:23;;;;;;;16.05;3.88;;;17.50;99.90;;;;;;5049218;28;20508;-65
2023/03/08 12:27:10;;;;;;;15.63;4.03;;;17.80;99.90;;;;;;5051904;28;20025;-65
2023/03/08 12:30:15;;;;;;;17.80;4.53;;;17.90;99.90;;;;;;5050917;28;20033;-65
2023/03/08 12:32:42;;;;;;;15.63;4.68;;;18.10;99.90;;;;;;5050809;28;20025;-64
2023/03/08 12:35:23;;;;;;;19.45;7.20;;;18.40;99.90;;;;;;5050940;28;20075;-65
2023/03/08 12:38:14;;;;;;;17.55;6.90;;;18.50;99.90;;;;;;5051902;28;20115;-65
2023/03/08 12:40:51;;;;;;;16.23;4.57;;;18.90;99.90;;;;;;5051809;28;20074;-65
2023/03/08 12:43:20;;;;;;;13.93;3.97;;;18.40;99.90;;;;;;5052217;28;20122;-65
2023/03/08 12:45:59;;;;;;;14.23;5.15;;;18.40;99.90;;;;;;5050706;28;20363;-65
2023/03/08 12:48:34;;;;;;;17.08;4.47;;;18.30;99.90;;;;;;5051180;28;20044;-65
2023/03/08 12:51:12;;;;;;;16.88;4.07;;;18.30;99.90;;;;;;5051886;28;20035;-65
2023/03/08 12:53:55;;;;;;;23.35;12.93;;;18.20;99.90;;;;;;5052531;28;20477;-65
2023/03/08 12:56:57;;;;;;;17.42;4.78;;;18.10;99.90;;;;;;5052105;28;20510;-65
2023/03/08 12:59:37;;;;;;;45.47;30.48;;;18.30;99.90;;;;;;5051419;28;20102;-64
2023/03/08 13:02:22;;;;;;;66.53;46.20;;;18.20;99.90;;;;;;5050237;28;20017;-65